Portada
METAR-TAF:

METAR-TAF

Aeroports :

La Paz, Mèxic

latitud: 24-04N, longitud: 110-22W, altitud: 21 m

Observació

L'informe es va fer fa 1 hora i 11 minuts, a les 03:42 UTC
Vent 9 kt del Sud/Sud-Oest
Temperatura 30°C
Humitat 52%
Pressió 1015 hPa
Visibilitat: 16.1 km
Núvols disperses a una alçada de 20000 ft

METAR: MMLP 010342Z 21009KT 10SM SCT200 30/19 A2997 RMK 8/008

Hora: 22:53 (04:53 UTC)

Pronòstic

L'informe es va fer fa 11 hores i 29 minuts, a les 17:24 UTC
Pronòstic vàlid del 31 a les 18 UTC al 01 a les 18 UTC
Vent 12 kt del Nord/Nord-Est
Visibilitat: 10 km
Núvols disperses a una alçada de 3000 ft
A partir de les 01 a les 0300 UTC
Vent 10 kt del Sud/Sud-Oest
Visibilitat: 10 km
Cel ennuvolat a una alçada de 20000 ft

TAF: MMLP 311724Z 3118/0118 02012KT P6SM SCT030 FM010300 20010KT P6SM BKN200

Observacions i pronòstics meteorològics de més de 4000 aeroports (METAR i TAF).

Les estacions disponibles són els punts grocs i vermells al mapa.

Posi el ratolí al punt desitjat per veure el nom de l'estació.

Feu clic per veure les observacions i els pronòstics meteorològics.

Per canviar el mapa: feu clic els botons verds amb una creu de color negre per apropar; al botó verd amb un guió per allunyar la imatge; o en les fletxes verdes per a mapes adjacents.


METAR-TAF: